createdAt,value
2024-02-22T00:00:18.970Z,80.83
2024-02-22T00:01:19.043Z,79.60
2024-02-22T00:02:19.050Z,83.30
2024-02-22T00:03:18.959Z,81.79
2024-02-22T00:04:19.079Z,78.78
2024-02-22T00:05:19.192Z,80.53
2024-02-22T00:06:19.092Z,79.72
2024-02-22T00:07:19.066Z,78.21
2024-02-22T00:08:19.132Z,76.29
2024-02-22T00:09:19.078Z,78.62
2024-02-22T00:10:19.124Z,75.99
2024-02-22T00:11:19.320Z,77.80
2024-02-22T00:12:19.181Z,78.17
2024-02-22T00:13:19.211Z,80.63
2024-02-22T00:14:19.228Z,78.35
2024-02-22T00:15:19.253Z,74.84
2024-02-22T00:16:21.867Z,79.94
2024-02-22T00:17:19.305Z,78.92
2024-02-22T00:18:19.352Z,79.08
2024-02-22T00:19:19.348Z,77.58
2024-02-22T00:20:19.335Z,79.41
2024-02-22T00:21:19.286Z,77.79
2024-02-22T00:22:19.261Z,77.96
2024-02-22T00:23:19.308Z,78.49
2024-02-22T00:24:19.272Z,76.73
2024-02-22T00:25:21.687Z,79.22
2024-02-22T00:26:19.328Z,79.19
2024-02-22T00:27:19.293Z,77.51
2024-02-22T00:28:19.256Z,79.64
2024-02-22T00:29:19.320Z,77.05
2024-02-22T00:30:22.079Z,78.49
2024-02-22T00:31:19.314Z,79.33
2024-02-22T00:32:19.314Z,79.53
2024-02-22T00:33:19.297Z,80.06
2024-02-22T00:34:19.394Z,80.02
2024-02-22T00:35:19.332Z,80.15
2024-02-22T00:36:19.288Z,77.67
2024-02-22T00:37:19.298Z,80.06
2024-02-22T00:38:19.330Z,80.92
2024-02-22T00:39:19.287Z,78.54
2024-02-22T00:40:19.316Z,78.53
2024-02-22T00:41:22.459Z,79.21
2024-02-22T00:42:19.274Z,79.22
2024-02-22T00:43:19.339Z,78.59
2024-02-22T00:44:19.347Z,79.37
2024-02-22T00:45:19.262Z,77.74
2024-02-22T00:46:19.326Z,79.34
2024-02-22T00:47:19.311Z,75.83
2024-02-22T00:48:19.427Z,77.50
2024-02-22T00:49:19.421Z,77.77
2024-02-22T00:50:19.452Z,77.84
2024-02-22T00:51:19.339Z,78.33
2024-02-22T00:52:19.304Z,77.90
2024-02-22T00:53:19.369Z,76.93
2024-02-22T00:54:19.286Z,76.99
2024-02-22T00:55:19.307Z,78.38
2024-02-22T00:56:19.399Z,77.13
2024-02-22T00:57:19.310Z,74.60
2024-02-22T00:58:19.276Z,76.82
2024-02-22T00:59:19.324Z,77.32
2024-02-22T01:00:19.289Z,76.36
2024-02-22T01:01:19.408Z,76.15
2024-02-22T01:02:19.361Z,75.83
2024-02-22T01:03:19.327Z,75.98
2024-02-22T01:04:19.396Z,78.19
2024-02-22T01:05:19.454Z,78.28
2024-02-22T01:06:19.409Z,72.57
2024-02-22T01:07:19.328Z,71.60
2024-02-22T01:08:19.350Z,76.04
2024-02-22T01:09:19.306Z,76.36
2024-02-22T01:10:19.331Z,78.18
2024-02-22T01:11:19.522Z,76.21
2024-02-22T01:12:19.346Z,77.20
2024-02-22T01:13:19.353Z,74.38
2024-02-22T01:14:19.331Z,72.65
2024-02-22T01:15:19.317Z,75.88
2024-02-22T01:16:19.319Z,74.39
2024-02-22T01:17:19.402Z,76.65
2024-02-22T01:18:19.400Z,75.49
2024-02-22T01:19:19.500Z,75.16
2024-02-22T01:20:19.350Z,74.74
2024-02-22T01:21:19.338Z,75.54
2024-02-22T01:22:19.337Z,72.40
2024-02-22T01:23:19.458Z,75.78
2024-02-22T01:24:19.346Z,76.54
2024-02-22T01:25:19.300Z,73.42
2024-02-22T01:26:19.471Z,74.56
2024-02-22T01:27:19.324Z,75.04
2024-02-22T01:28:19.318Z,71.54
2024-02-22T01:29:19.369Z,71.68
2024-02-22T01:30:19.309Z,72.15
2024-02-22T01:31:19.355Z,75.44
2024-02-22T01:32:19.423Z,74.28
2024-02-22T01:33:19.433Z,72.91
2024-02-22T01:34:19.355Z,71.47
2024-02-22T01:35:19.570Z,74.93
2024-02-22T01:36:19.309Z,73.46
2024-02-22T01:37:19.318Z,70.90
2024-02-22T01:38:19.432Z,73.76
2024-02-22T01:39:19.348Z,74.36
2024-02-22T01:40:19.355Z,70.94
2024-02-22T01:41:19.417Z,73.88
2024-02-22T01:42:19.333Z,70.18
2024-02-22T01:43:19.336Z,73.29
2024-02-22T01:44:19.442Z,73.53
2024-02-22T01:45:19.315Z,75.77
2024-02-22T01:46:19.347Z,71.35
2024-02-22T01:47:19.359Z,74.37
2024-02-22T01:48:19.600Z,71.19
2024-02-22T01:49:19.452Z,71.22
2024-02-22T01:50:19.551Z,72.04
2024-02-22T01:51:19.363Z,71.09
2024-02-22T01:52:19.369Z,72.20
2024-02-22T01:53:19.397Z,70.53
2024-02-22T01:54:19.314Z,73.49
2024-02-22T01:55:19.492Z,70.75
2024-02-22T01:56:19.528Z,69.34
2024-02-22T01:57:19.351Z,70.43
2024-02-22T01:58:19.377Z,72.57
2024-02-22T01:59:19.407Z,70.24
2024-02-22T02:00:19.729Z,73.25
2024-02-22T02:01:19.455Z,70.81
2024-02-22T02:02:19.455Z,71.76
2024-02-22T02:03:19.475Z,71.15
2024-02-22T02:04:19.370Z,71.78
2024-02-22T02:05:19.402Z,69.44
2024-02-22T02:06:19.524Z,73.00
2024-02-22T02:07:19.394Z,70.01
2024-02-22T02:08:19.366Z,69.27
2024-02-22T02:09:19.351Z,71.13
2024-02-22T02:10:19.405Z,69.29
2024-02-22T02:11:19.455Z,70.91
2024-02-22T02:12:19.366Z,71.42
2024-02-22T02:13:19.383Z,68.47
2024-02-22T02:14:19.424Z,69.86
2024-02-22T02:15:19.432Z,70.24
2024-02-22T02:16:19.359Z,71.49
2024-02-22T02:17:19.856Z,70.60
2024-02-22T02:18:19.596Z,69.57
2024-02-22T02:19:19.498Z,70.03
2024-02-22T02:20:19.575Z,69.10
2024-02-22T02:21:19.409Z,68.70
2024-02-22T02:22:19.387Z,69.06
2024-02-22T02:23:19.443Z,70.55
2024-02-22T02:24:19.400Z,69.34
2024-02-22T02:25:19.480Z,69.76
2024-02-22T02:26:19.450Z,70.26
2024-02-22T02:27:19.413Z,68.14
2024-02-22T02:28:19.391Z,72.49
2024-02-22T02:29:19.443Z,68.27
2024-02-22T02:30:19.420Z,66.93
2024-02-22T02:31:19.428Z,69.26
2024-02-22T02:32:19.519Z,69.24
2024-02-22T02:33:19.459Z,68.46
2024-02-22T02:34:19.447Z,67.80
2024-02-22T02:35:19.503Z,67.57
2024-02-22T02:36:19.425Z,70.10
2024-02-22T02:37:19.403Z,68.48
2024-02-22T02:38:19.432Z,69.46
2024-02-22T02:39:19.396Z,68.66
2024-02-22T02:40:19.411Z,69.11
2024-02-22T02:41:19.449Z,67.30
2024-02-22T02:42:19.389Z,67.67
2024-02-22T02:43:19.403Z,68.26
2024-02-22T02:44:19.495Z,68.10
2024-02-22T02:45:19.398Z,67.82
2024-02-22T02:46:19.381Z,67.12
2024-02-22T02:47:19.510Z,67.54
2024-02-22T02:48:19.405Z,67.02
2024-02-22T02:49:19.483Z,65.92
2024-02-22T02:50:19.440Z,68.61
2024-02-22T02:51:19.410Z,66.61
2024-02-22T02:52:19.397Z,67.36
2024-02-22T02:53:19.623Z,67.57
2024-02-22T02:54:19.407Z,66.14
2024-02-22T02:55:19.381Z,67.20
2024-02-22T02:56:19.490Z,64.63
2024-02-22T02:57:19.413Z,67.55
2024-02-22T02:58:19.394Z,66.29
2024-02-22T02:59:19.482Z,68.11
2024-02-22T03:00:19.449Z,67.29
2024-02-22T03:01:19.550Z,67.28
2024-02-22T03:02:19.474Z,66.43
2024-02-22T03:03:19.426Z,70.22
2024-02-22T03:04:19.526Z,64.85
2024-02-22T03:05:19.531Z,66.79
2024-02-22T03:06:19.481Z,67.05
2024-02-22T03:07:19.417Z,68.71
2024-02-22T03:08:19.458Z,66.36
2024-02-22T03:09:19.405Z,65.22
2024-02-22T03:10:19.416Z,65.09
2024-02-22T03:11:19.563Z,66.39
2024-02-22T03:12:19.468Z,66.61
2024-02-22T03:13:19.434Z,65.35
2024-02-22T03:14:19.486Z,66.12
2024-02-22T03:15:19.485Z,66.68
2024-02-22T03:16:19.528Z,63.29
2024-02-22T03:17:19.557Z,64.16
2024-02-22T03:18:19.540Z,65.56
2024-02-22T03:19:19.536Z,67.78
2024-02-22T03:20:19.660Z,67.10
2024-02-22T03:21:19.572Z,64.73
2024-02-22T03:22:19.602Z,64.36
2024-02-22T03:23:19.709Z,65.99
2024-02-22T03:24:19.647Z,65.19
2024-02-22T03:25:19.711Z,64.20
2024-02-22T03:26:19.759Z,63.33
2024-02-22T03:27:19.699Z,64.03
2024-02-22T03:28:19.739Z,64.83
2024-02-22T03:29:19.901Z,64.96
2024-02-22T03:30:19.769Z,65.24
2024-02-22T03:31:19.815Z,64.32
2024-02-22T03:32:19.879Z,64.45
2024-02-22T03:33:19.848Z,63.66
2024-02-22T03:34:19.919Z,63.67
2024-02-22T03:35:20.077Z,63.32
2024-02-22T03:36:19.937Z,64.15
2024-02-22T03:37:19.922Z,62.84
2024-02-22T03:38:20.033Z,64.26
2024-02-22T03:39:19.997Z,62.39
2024-02-22T03:40:20.015Z,65.65
2024-02-22T03:41:20.046Z,63.05
2024-02-22T03:42:20.080Z,62.05
2024-02-22T03:43:20.058Z,63.35
2024-02-22T03:44:20.170Z,63.82
2024-02-22T03:45:20.109Z,63.06
2024-02-22T03:46:20.156Z,64.76
2024-02-22T03:47:20.196Z,63.89
2024-02-22T03:48:20.264Z,65.12
2024-02-22T03:49:20.260Z,63.72
2024-02-22T03:50:20.253Z,61.60
2024-02-22T03:51:20.298Z,63.99
2024-02-22T03:52:20.266Z,60.77
2024-02-22T03:53:20.369Z,62.88
2024-02-22T03:54:20.355Z,64.25
2024-02-22T03:55:20.393Z,58.88
2024-02-22T03:56:20.435Z,63.86
2024-02-22T03:57:20.390Z,62.07
2024-02-22T03:58:20.411Z,61.88
2024-02-22T03:59:20.548Z,60.85
2024-02-22T04:00:20.458Z,59.43
2024-02-22T04:01:20.536Z,64.03
2024-02-22T04:02:20.549Z,62.15
2024-02-22T04:03:20.541Z,62.85
2024-02-22T04:04:20.598Z,61.54
2024-02-22T04:05:20.650Z,61.94
2024-02-22T04:06:20.666Z,61.37
2024-02-22T04:07:20.668Z,62.93
2024-02-22T04:08:20.749Z,60.83
2024-02-22T04:09:20.685Z,62.87
2024-02-22T04:10:20.703Z,60.79
2024-02-22T04:11:20.917Z,61.96
2024-02-22T04:12:20.806Z,62.25
2024-02-22T04:13:20.803Z,60.90
2024-02-22T04:14:20.836Z,62.70
2024-02-22T04:15:20.832Z,60.87
2024-02-22T04:16:20.855Z,61.22
2024-02-22T04:17:20.932Z,60.29
2024-02-22T04:18:21.042Z,59.90
2024-02-22T04:19:21.096Z,58.61
2024-02-22T04:20:21.018Z,59.30
2024-02-22T04:21:20.980Z,60.29
2024-02-22T04:22:21.017Z,60.04
2024-02-22T04:23:21.195Z,59.49
2024-02-22T04:24:21.082Z,62.09
2024-02-22T04:25:21.080Z,59.25
2024-02-22T04:26:21.156Z,60.20
2024-02-22T04:27:21.125Z,59.91
2024-02-22T04:28:28.361Z,50.00
2024-02-22T04:29:28.353Z,50.00
2024-02-22T04:30:28.366Z,50.00
2024-02-22T04:31:35.693Z,50.00
2024-02-22T04:32:35.619Z,50.00
2024-02-22T04:33:35.585Z,50.00
2024-02-22T04:34:35.669Z,50.00
2024-02-22T04:35:35.657Z,50.00
2024-02-22T04:36:35.617Z,51.76
2024-02-22T04:37:35.660Z,50.77
2024-02-22T04:38:35.645Z,50.58
2024-02-22T04:39:35.597Z,51.70
2024-02-22T04:40:35.619Z,51.56
2024-02-22T04:41:35.684Z,50.77
2024-02-22T04:42:35.614Z,52.48
2024-02-22T04:43:35.637Z,52.28
2024-02-22T04:44:35.593Z,50.81
2024-02-22T04:45:35.586Z,51.65
2024-02-22T04:46:35.655Z,52.25
2024-02-22T04:47:35.618Z,51.73
2024-02-22T04:48:35.725Z,52.88
2024-02-22T04:49:35.629Z,50.88
2024-02-22T04:50:35.593Z,51.35
2024-02-22T04:51:35.695Z,55.96
2024-02-22T04:52:35.687Z,54.64
2024-02-22T04:53:35.587Z,53.31
2024-02-22T04:54:41.382Z,52.86
2024-02-22T04:55:36.633Z,52.93
2024-02-22T04:56:35.628Z,53.32
2024-02-22T04:57:35.615Z,53.96
2024-02-22T04:58:35.651Z,54.55
2024-02-22T04:59:35.589Z,52.17
2024-02-22T05:00:35.792Z,53.04
2024-02-22T05:01:35.698Z,52.12
2024-02-22T05:02:35.663Z,51.45
2024-02-22T05:03:35.667Z,52.22
2024-02-22T05:04:35.644Z,55.65
2024-02-22T05:05:35.659Z,53.53
2024-02-22T05:06:35.641Z,52.76
2024-02-22T05:07:35.740Z,51.85
2024-02-22T05:08:37.684Z,53.65
2024-02-22T05:09:35.761Z,53.76
2024-02-22T05:10:35.997Z,52.33
2024-02-22T05:11:35.943Z,53.26
2024-02-22T05:12:35.821Z,53.73
2024-02-22T05:13:35.907Z,51.31
2024-02-22T05:14:35.851Z,53.45
2024-02-22T05:15:35.901Z,51.35
2024-02-22T05:16:36.043Z,51.77
2024-02-22T05:17:35.997Z,53.93
2024-02-22T05:18:36.114Z,52.18
2024-02-22T05:19:36.122Z,52.86
2024-02-22T05:20:36.048Z,53.22
2024-02-22T05:21:36.099Z,52.98
2024-02-22T05:22:36.243Z,51.53
2024-02-22T05:23:36.257Z,51.76
2024-02-22T05:24:36.299Z,52.04
2024-02-22T05:25:36.244Z,53.54
2024-02-22T05:26:36.212Z,52.85
2024-02-22T05:27:39.234Z,52.28
2024-02-22T05:28:36.306Z,52.31
2024-02-22T05:29:36.272Z,52.42
2024-02-22T05:30:36.270Z,52.60
2024-02-22T05:31:36.374Z,53.55
2024-02-22T05:32:36.289Z,52.26
2024-02-22T05:33:36.384Z,53.47
2024-02-22T05:34:36.399Z,52.60
2024-02-22T05:35:36.276Z,52.42
2024-02-22T05:36:36.256Z,52.54
2024-02-22T05:37:36.530Z,52.90
2024-02-22T05:38:36.271Z,50.00
2024-02-22T05:39:36.277Z,51.57
2024-02-22T05:40:36.309Z,53.67
2024-02-22T05:41:36.333Z,55.24
2024-02-22T05:42:36.271Z,54.30
2024-02-22T05:43:36.341Z,51.78
2024-02-22T05:44:36.295Z,52.04
2024-02-22T05:45:36.331Z,52.44
2024-02-22T05:46:36.318Z,51.59
2024-02-22T05:47:36.419Z,54.97
2024-02-22T05:48:36.354Z,52.97
2024-02-22T05:49:36.359Z,51.58
2024-02-22T05:50:36.289Z,49.82
2024-02-22T05:51:36.273Z,50.00
2024-02-22T05:52:36.373Z,50.08
2024-02-22T05:53:36.264Z,50.00
2024-02-22T05:54:36.256Z,52.63
2024-02-22T05:55:36.320Z,50.54
2024-02-22T05:56:36.344Z,51.63
2024-02-22T05:57:36.301Z,51.56
2024-02-22T05:58:36.280Z,53.02
2024-02-22T05:59:36.291Z,50.59
2024-02-22T06:00:36.426Z,52.86
2024-02-22T06:01:36.528Z,50.98
2024-02-22T06:02:36.356Z,50.00
2024-02-22T06:03:36.315Z,50.56
2024-02-22T06:04:36.412Z,51.04
2024-02-22T06:05:36.417Z,51.63
2024-02-22T06:06:36.281Z,51.34
2024-02-22T06:07:36.327Z,51.21
2024-02-22T06:08:36.372Z,52.13
2024-02-22T06:09:36.313Z,52.75
2024-02-22T06:10:36.466Z,54.08
2024-02-22T06:11:36.809Z,51.37
2024-02-22T06:12:36.282Z,51.83
2024-02-22T06:13:36.381Z,52.34
2024-02-22T06:14:36.287Z,50.00
2024-02-22T06:15:36.276Z,54.38
2024-02-22T06:16:36.308Z,52.23
2024-02-22T06:17:36.375Z,52.00
2024-02-22T06:18:38.523Z,50.73
2024-02-22T06:19:36.491Z,52.16
2024-02-22T06:20:36.483Z,51.15
2024-02-22T06:21:36.532Z,52.21
2024-02-22T06:22:36.596Z,55.05
2024-02-22T06:23:36.541Z,51.08
2024-02-22T06:24:36.612Z,50.11
2024-02-22T06:25:36.625Z,51.61
2024-02-22T06:26:36.640Z,52.18
2024-02-22T06:27:36.676Z,55.67
2024-02-22T06:28:36.698Z,53.04
2024-02-22T06:29:36.714Z,53.98
2024-02-22T06:30:36.746Z,55.99
2024-02-22T06:31:36.873Z,55.17
2024-02-22T06:32:36.804Z,55.59
2024-02-22T06:33:36.949Z,55.55
2024-02-22T06:35:36.888Z,56.15
2024-02-22T06:36:36.896Z,55.53
2024-02-22T06:37:36.956Z,56.14
2024-02-22T06:38:36.945Z,53.00
2024-02-22T06:39:36.984Z,55.81
2024-02-22T06:40:37.034Z,52.68
2024-02-22T06:41:37.050Z,52.17
2024-02-22T06:42:37.044Z,51.51
2024-02-22T06:43:37.102Z,50.00
2024-02-22T06:44:37.076Z,56.63
2024-02-22T06:45:37.165Z,56.76
2024-02-22T06:46:37.144Z,59.28
2024-02-22T06:47:37.169Z,64.27
2024-02-22T06:48:37.282Z,62.16
2024-02-22T06:49:37.222Z,63.86
2024-02-22T06:50:37.209Z,66.26
2024-02-22T06:51:37.303Z,70.03
2024-02-22T06:52:37.247Z,77.52
2024-02-22T06:53:37.224Z,83.47
2024-02-22T06:54:37.210Z,85.67
2024-02-22T06:55:37.244Z,88.50
2024-02-22T06:56:37.278Z,105.85
2024-02-22T06:57:37.427Z,108.44
2024-02-22T06:58:37.436Z,110.05
2024-02-22T06:59:37.443Z,116.34
2024-02-22T07:00:37.549Z,116.47
2024-02-22T07:01:37.685Z,123.59
2024-02-22T07:02:37.617Z,124.03
2024-02-22T07:03:37.685Z,127.31
2024-02-22T07:04:37.878Z,125.27
2024-02-22T07:05:37.917Z,127.96
2024-02-22T07:06:37.868Z,129.45
2024-02-22T07:07:37.917Z,134.94
2024-02-22T07:08:38.779Z,137.04
2024-02-22T07:09:37.941Z,139.07
2024-02-22T07:10:38.038Z,136.41
2024-02-22T07:11:38.181Z,137.24
2024-02-22T07:12:38.039Z,140.62
2024-02-22T07:13:38.061Z,140.45
2024-02-22T07:14:38.109Z,137.39
2024-02-22T07:15:38.142Z,140.08
2024-02-22T07:16:38.285Z,142.91
2024-02-22T07:17:38.301Z,141.67
2024-02-22T07:18:38.374Z,142.95
2024-02-22T07:19:38.362Z,148.94
2024-02-22T07:20:38.417Z,153.14
2024-02-22T07:21:38.393Z,155.81
2024-02-22T07:22:40.072Z,156.53
2024-02-22T07:23:38.408Z,155.61
2024-02-22T07:24:38.427Z,160.84
2024-02-22T07:25:38.451Z,157.50
2024-02-22T07:26:38.443Z,159.06
2024-02-22T07:27:38.392Z,159.31
2024-02-22T07:28:38.461Z,158.50
2024-02-22T07:29:38.493Z,158.96
2024-02-22T07:30:38.433Z,156.78
2024-02-22T07:31:38.476Z,157.87
2024-02-22T07:32:38.407Z,156.53
2024-02-22T07:33:38.490Z,158.20
2024-02-22T07:34:38.575Z,160.78
2024-02-22T07:35:38.504Z,177.69
2024-02-22T07:36:38.431Z,184.21
2024-02-22T07:37:38.463Z,186.74
2024-02-22T07:38:38.464Z,190.17
2024-02-22T07:39:38.423Z,188.92
2024-02-22T07:40:38.472Z,193.69
2024-02-22T07:41:38.435Z,200.00
2024-02-22T07:42:38.452Z,198.04
2024-02-22T07:43:38.457Z,198.10
2024-02-22T07:44:38.415Z,199.47
2024-02-22T07:45:38.498Z,196.75
2024-02-22T07:46:38.524Z,192.38
2024-02-22T07:47:38.469Z,198.88
2024-02-22T07:48:38.481Z,190.89
2024-02-22T07:49:38.551Z,188.95
2024-02-22T07:50:38.432Z,183.30
2024-02-22T07:52:38.458Z,183.18
2024-02-22T07:53:38.481Z,184.04
2024-02-22T07:54:38.502Z,186.35
2024-02-22T07:55:38.538Z,189.52
2024-02-22T07:56:38.436Z,193.43
2024-02-22T07:57:38.441Z,194.50
2024-02-22T07:58:38.462Z,195.38
2024-02-22T07:59:38.429Z,194.65
2024-02-22T08:00:38.548Z,193.38
2024-02-22T08:01:38.495Z,194.77
2024-02-22T08:02:38.518Z,199.63
2024-02-22T08:03:38.541Z,196.99
2024-02-22T08:04:38.538Z,197.18
2024-02-22T08:05:38.548Z,196.95
2024-02-22T08:06:38.522Z,195.58
2024-02-22T08:07:38.472Z,195.97
2024-02-22T08:08:38.508Z,196.76
2024-02-22T08:09:39.312Z,191.76
2024-02-22T08:10:38.528Z,194.92
2024-02-22T08:11:38.556Z,193.13
2024-02-22T08:12:38.474Z,200.00
2024-02-22T08:13:38.521Z,198.62
2024-02-22T08:14:38.460Z,197.92
2024-02-22T08:15:38.504Z,199.17
2024-02-22T08:16:38.504Z,196.62
2024-02-22T08:17:38.582Z,197.07
2024-02-22T08:18:38.494Z,198.40
2024-02-22T08:19:38.591Z,196.70
2024-02-22T08:20:38.712Z,196.58
2024-02-22T08:21:38.514Z,195.04
2024-02-22T08:22:38.523Z,194.71
2024-02-22T08:23:38.487Z,196.02
2024-02-22T08:24:38.465Z,192.78
2024-02-22T08:25:38.549Z,190.81
2024-02-22T08:26:38.494Z,191.95
2024-02-22T08:27:46.510Z,191.57
2024-02-22T08:28:39.550Z,191.62
2024-02-22T08:29:38.462Z,190.60
2024-02-22T08:30:38.490Z,191.72
2024-02-22T08:31:38.637Z,192.79
2024-02-22T08:32:38.578Z,192.18
2024-02-22T08:33:38.578Z,193.18
2024-02-22T08:34:38.556Z,193.49
2024-02-22T08:35:38.519Z,194.77
2024-02-22T08:36:38.510Z,192.20
2024-02-22T08:37:38.470Z,196.81
2024-02-22T08:38:38.498Z,193.64
2024-02-22T08:39:38.487Z,191.15
2024-02-22T08:40:40.329Z,188.91
2024-02-22T08:41:38.737Z,188.13
2024-02-22T08:42:38.493Z,186.00
2024-02-22T08:43:38.554Z,186.00
2024-02-22T08:44:38.516Z,182.31
2024-02-22T08:45:38.506Z,184.27
2024-02-22T08:46:38.566Z,178.69
2024-02-22T08:47:38.607Z,186.78
2024-02-22T08:48:38.551Z,192.05
2024-02-22T08:49:38.582Z,192.54
2024-02-22T08:50:38.486Z,194.65
2024-02-22T08:51:38.576Z,198.94
2024-02-22T08:52:38.595Z,198.15
2024-02-22T08:53:38.558Z,197.43
2024-02-22T08:54:38.621Z,196.29
2024-02-22T08:55:38.690Z,194.10
2024-02-22T08:56:38.779Z,192.56
2024-02-22T08:57:50.864Z,194.07
2024-02-22T08:58:39.872Z,190.80
2024-02-22T08:59:38.710Z,191.32
2024-02-22T09:00:38.743Z,188.68
2024-02-22T09:01:38.723Z,184.72
2024-02-22T09:02:38.721Z,184.02
2024-02-22T09:03:38.711Z,182.54
2024-02-22T09:04:38.735Z,181.60
2024-02-22T09:05:38.727Z,182.41
2024-02-22T09:06:38.905Z,180.20
2024-02-22T09:07:38.865Z,179.37
2024-02-22T09:08:38.714Z,178.48
2024-02-22T09:09:38.729Z,177.23
2024-02-22T09:10:38.815Z,175.61
2024-02-22T09:11:39.009Z,169.79
2024-02-22T09:12:38.900Z,169.47
2024-02-22T09:13:39.047Z,168.26
2024-02-22T09:14:39.041Z,164.48
2024-02-22T09:15:39.114Z,164.88
2024-02-22T09:16:39.231Z,162.28
2024-02-22T09:17:39.338Z,159.52
2024-02-22T09:18:39.462Z,157.28
2024-02-22T09:19:39.431Z,158.68
2024-02-22T09:20:39.427Z,154.85
2024-02-22T09:21:39.472Z,151.78
2024-02-22T09:22:39.516Z,150.86
2024-02-22T09:23:39.505Z,147.73
2024-02-22T09:24:39.603Z,146.48
2024-02-22T09:25:39.551Z,146.22
2024-02-22T09:26:39.544Z,147.30
2024-02-22T09:27:39.541Z,142.71
2024-02-22T09:28:39.589Z,143.54
2024-02-22T09:29:39.609Z,138.52
2024-02-22T09:30:39.703Z,138.51
2024-02-22T09:31:39.737Z,138.20
2024-02-22T09:32:39.779Z,139.91
2024-02-22T09:33:39.859Z,148.11
2024-02-22T09:34:39.948Z,150.95
2024-02-22T09:35:39.828Z,151.80
2024-02-22T09:36:39.849Z,150.73
2024-02-22T09:37:40.827Z,144.46
2024-02-22T09:38:39.935Z,139.54
2024-02-22T09:39:39.903Z,138.91
2024-02-22T09:40:40.012Z,132.45
2024-02-22T09:41:40.040Z,130.46
2024-02-22T09:42:40.045Z,124.68
2024-02-22T09:43:40.115Z,121.27
2024-02-22T09:44:40.138Z,123.19
2024-02-22T09:45:40.157Z,118.03
2024-02-22T09:46:40.216Z,117.80
2024-02-22T09:47:40.356Z,115.01
2024-02-22T09:48:40.481Z,111.67
2024-02-22T09:49:40.393Z,114.45
2024-02-22T09:50:40.535Z,108.69
2024-02-22T09:51:40.531Z,106.67
2024-02-22T09:52:40.683Z,103.93
2024-02-22T09:53:40.647Z,108.79
2024-02-22T09:54:40.707Z,115.05
2024-02-22T09:55:40.829Z,117.63
2024-02-22T09:56:40.798Z,120.20
2024-02-22T09:57:40.865Z,123.63
2024-02-22T09:58:40.919Z,124.00
2024-02-22T09:59:40.945Z,125.57
2024-02-22T10:00:40.967Z,124.00
2024-02-22T10:01:41.042Z,120.40
2024-02-22T10:02:40.998Z,125.67
2024-02-22T10:03:41.176Z,128.04
2024-02-22T10:04:41.112Z,126.97
2024-02-22T10:05:41.186Z,127.24
2024-02-22T10:06:41.229Z,129.58
2024-02-22T10:07:41.290Z,128.65
2024-02-22T10:08:43.669Z,130.90
2024-02-22T10:09:41.175Z,130.96
2024-02-22T10:10:41.251Z,131.40
2024-02-22T10:11:41.249Z,132.15
2024-02-22T10:12:41.608Z,133.86
2024-02-22T10:13:41.241Z,134.33
2024-02-22T10:14:41.288Z,139.30
2024-02-22T10:15:41.173Z,136.46
2024-02-22T10:16:41.191Z,140.06
2024-02-22T10:17:41.273Z,139.53
2024-02-22T10:18:41.253Z,136.73
2024-02-22T10:19:41.212Z,139.82
2024-02-22T10:20:44.685Z,138.14
2024-02-22T10:21:41.205Z,138.24
2024-02-22T10:22:41.295Z,138.22
2024-02-22T10:23:41.212Z,138.32
2024-02-22T10:24:41.169Z,138.13
2024-02-22T10:25:41.491Z,137.40
2024-02-22T10:26:41.185Z,138.80
2024-02-22T10:27:41.150Z,140.21
2024-02-22T10:28:41.246Z,139.51
2024-02-22T10:29:41.176Z,139.72
2024-02-22T10:30:41.208Z,141.96
2024-02-22T10:31:41.217Z,141.01
2024-02-22T10:32:41.903Z,143.02
2024-02-22T10:33:41.200Z,143.22
2024-02-22T10:34:41.296Z,142.33
2024-02-22T10:35:41.210Z,143.14
2024-02-22T10:36:41.211Z,141.79
2024-02-22T10:37:41.473Z,140.59
2024-02-22T10:38:41.185Z,139.07
2024-02-22T10:39:41.178Z,139.96
2024-02-22T10:40:41.251Z,139.27
2024-02-22T10:41:41.213Z,137.62
2024-02-22T10:42:41.719Z,136.02
2024-02-22T10:43:41.231Z,132.95
2024-02-22T10:44:41.192Z,131.59
2024-02-22T10:45:41.211Z,129.14
2024-02-22T10:46:41.892Z,131.12
2024-02-22T10:47:41.255Z,133.41
2024-02-22T10:48:41.269Z,138.68
2024-02-22T10:49:41.243Z,146.38
2024-02-22T10:50:41.201Z,153.10
2024-02-22T10:51:41.210Z,157.54
2024-02-22T10:52:41.439Z,158.30
2024-02-22T10:53:41.221Z,161.21
2024-02-22T10:54:41.175Z,163.39
2024-02-22T10:55:41.255Z,164.41
2024-02-22T10:56:41.220Z,164.90
2024-02-22T10:57:41.186Z,167.66
2024-02-22T10:58:41.185Z,168.56
2024-02-22T10:59:41.165Z,168.25
2024-02-22T11:00:41.280Z,166.66
2024-02-22T11:01:41.233Z,165.80
2024-02-22T11:02:41.204Z,163.34
2024-02-22T11:03:41.251Z,162.21
2024-02-22T11:04:41.232Z,162.68
2024-02-22T11:05:41.218Z,163.45
2024-02-22T11:06:41.221Z,161.66
2024-02-22T11:07:41.218Z,161.41
2024-02-22T11:08:41.233Z,160.03
2024-02-22T11:09:41.184Z,163.14
2024-02-22T11:10:41.259Z,163.02
2024-02-22T11:11:41.352Z,165.04
2024-02-22T11:12:41.230Z,167.14
2024-02-22T11:13:41.235Z,167.91
2024-02-22T11:14:41.264Z,165.01
2024-02-22T11:15:41.301Z,161.71
2024-02-22T11:16:41.407Z,161.92
2024-02-22T11:17:41.455Z,160.52
2024-02-22T11:18:41.506Z,164.68
2024-02-22T11:19:41.600Z,159.83
2024-02-22T11:20:41.614Z,159.37
2024-02-22T11:21:41.692Z,158.94
2024-02-22T11:22:41.775Z,157.61
2024-02-22T11:23:42.090Z,157.31
2024-02-22T11:24:41.883Z,155.80
2024-02-22T11:25:41.979Z,155.08
2024-02-22T11:26:42.012Z,157.08
2024-02-22T11:27:42.098Z,157.46
2024-02-22T11:28:42.201Z,159.33
2024-02-22T11:29:42.228Z,158.30
2024-02-22T11:30:42.473Z,157.06
2024-02-22T11:31:42.412Z,158.57
2024-02-22T11:32:42.542Z,154.70
2024-02-22T11:33:42.698Z,156.22
2024-02-22T11:34:42.690Z,155.16
2024-02-22T11:35:42.708Z,157.05
2024-02-22T11:36:42.747Z,157.43
2024-02-22T11:37:42.845Z,159.01
2024-02-22T11:38:42.916Z,159.37
2024-02-22T11:39:42.956Z,159.67
2024-02-22T11:40:43.047Z,164.70
2024-02-22T11:41:43.024Z,165.98
2024-02-22T11:42:43.066Z,165.74
2024-02-22T11:43:43.251Z,168.19
2024-02-22T11:44:43.172Z,172.52
2024-02-22T11:45:43.255Z,177.07
2024-02-22T11:46:43.385Z,178.52
2024-02-22T11:47:43.400Z,179.80
2024-02-22T11:48:43.512Z,177.46
2024-02-22T11:49:43.602Z,180.62
2024-02-22T11:50:43.558Z,177.06
2024-02-22T11:51:43.643Z,177.61
2024-02-22T11:52:43.741Z,176.84
2024-02-22T11:53:43.709Z,176.18
2024-02-22T11:54:43.784Z,173.88
2024-02-22T11:55:43.857Z,174.38
2024-02-22T11:56:43.905Z,172.84
2024-02-22T11:57:43.969Z,169.26
2024-02-22T11:58:44.090Z,170.25
2024-02-22T11:59:44.074Z,164.82
2024-02-22T12:00:44.091Z,167.13
2024-02-22T12:01:44.168Z,165.28
2024-02-22T12:02:44.185Z,165.32
2024-02-22T12:03:44.276Z,164.59
2024-02-22T12:04:44.299Z,164.63
2024-02-22T12:05:44.455Z,166.94
2024-02-22T12:06:44.473Z,167.14
2024-02-22T12:07:44.473Z,165.45
2024-02-22T12:08:44.441Z,165.28
2024-02-22T12:09:44.460Z,166.97
2024-02-22T12:10:44.642Z,166.70
2024-02-22T12:11:44.691Z,164.25
2024-02-22T12:12:44.630Z,162.41
2024-02-22T12:13:44.687Z,162.73
2024-02-22T12:14:44.720Z,161.96
2024-02-22T12:15:44.792Z,162.68
2024-02-22T12:16:44.783Z,161.60
2024-02-22T12:17:44.835Z,158.71
2024-02-22T12:18:44.847Z,158.11
2024-02-22T12:19:44.891Z,160.63
2024-02-22T12:20:44.988Z,154.46
2024-02-22T12:21:44.959Z,152.10
2024-02-22T12:22:45.041Z,152.33
2024-02-22T12:23:45.080Z,149.46
2024-02-22T12:24:45.110Z,139.84
2024-02-22T12:25:45.225Z,137.96
2024-02-22T12:26:45.195Z,133.60
2024-02-22T12:27:45.298Z,135.45
2024-02-22T12:28:45.338Z,137.20
2024-02-22T12:29:45.362Z,133.98
2024-02-22T12:30:45.465Z,132.05
2024-02-22T12:31:45.577Z,133.90
2024-02-22T12:32:45.650Z,135.14
2024-02-22T12:33:45.710Z,139.69
2024-02-22T12:34:45.789Z,141.83
2024-02-22T12:35:45.730Z,144.86
2024-02-22T12:36:45.809Z,144.60
2024-02-22T12:37:45.861Z,145.21
2024-02-22T12:38:45.928Z,148.19
2024-02-22T12:39:45.946Z,150.52
2024-02-22T12:40:46.162Z,151.74
2024-02-22T12:41:46.055Z,151.99
2024-02-22T12:42:46.095Z,156.35
2024-02-22T12:43:46.182Z,154.59